createdAt,value
2023-03-17T00:00:57.988Z,-1.78
2023-03-17T00:06:00.806Z,-1.84
2023-03-17T00:11:03.136Z,-1.88
2023-03-17T00:16:11.323Z,-1.93
2023-03-17T00:21:15.852Z,-2.00
2023-03-17T00:26:19.933Z,-2.05
2023-03-17T00:31:27.952Z,-2.14
2023-03-17T00:36:32.775Z,-2.16
2023-03-17T00:41:34.750Z,-2.20
2023-03-17T00:46:38.594Z,-2.24
2023-03-17T00:51:40.731Z,-2.31
2023-03-17T00:56:44.551Z,-2.42
2023-03-17T01:01:48.055Z,-2.40
2023-03-17T01:06:51.490Z,-2.44
2023-03-17T01:11:55.331Z,-2.49
2023-03-17T01:16:57.448Z,-2.55
2023-03-17T01:21:59.485Z,-2.58
2023-03-17T01:27:01.476Z,-2.63
2023-03-17T01:32:04.320Z,-2.68
2023-03-17T01:37:07.264Z,-2.71
2023-03-17T01:42:09.423Z,-2.76
2023-03-17T01:47:11.414Z,-2.80
2023-03-17T01:52:17.731Z,-2.83
2023-03-17T01:57:42.426Z,-2.87
2023-03-17T02:02:48.116Z,-2.91
2023-03-17T02:07:51.423Z,-2.94
2023-03-17T02:12:57.295Z,-2.99
2023-03-17T02:17:59.325Z,-3.03
2023-03-17T02:23:02.098Z,-3.06
2023-03-17T02:28:11.114Z,-3.10
2023-03-17T02:33:13.204Z,-3.14
2023-03-17T02:38:15.179Z,-3.17
2023-03-17T02:43:17.231Z,-3.21
2023-03-17T02:48:19.721Z,-3.26
2023-03-17T02:53:21.902Z,-3.30
2023-03-17T02:58:23.947Z,-3.34
2023-03-17T03:03:26.054Z,-3.38
2023-03-17T03:08:28.121Z,-3.41
2023-03-17T03:13:30.315Z,-3.45
2023-03-17T03:18:33.128Z,-3.47
2023-03-17T03:23:35.165Z,-3.51
2023-03-17T03:28:37.524Z,-3.54
2023-03-17T03:33:40.193Z,-3.56
2023-03-17T03:38:43.015Z,-3.60
2023-03-17T03:43:45.313Z,-3.64
2023-03-17T03:48:47.404Z,-3.66
2023-03-17T03:53:49.386Z,-3.69
2023-03-17T03:58:51.540Z,-3.72
2023-03-17T04:03:53.736Z,-3.74
2023-03-17T04:08:57.877Z,-3.76
2023-03-17T04:14:00.384Z,-3.78
2023-03-17T04:19:02.596Z,-3.79
2023-03-17T04:24:05.439Z,-3.78
2023-03-17T04:29:09.174Z,-3.81
2023-03-17T04:34:16.477Z,-3.82
2023-03-17T04:39:18.712Z,-3.83
2023-03-17T04:44:20.832Z,-3.83
2023-03-17T04:49:23.033Z,-3.85
2023-03-17T04:54:25.464Z,-3.86
2023-03-17T04:59:27.743Z,-3.87
2023-03-17T05:04:32.006Z,-3.87
2023-03-17T05:09:34.452Z,-3.87
2023-03-17T05:14:37.527Z,-3.86
2023-03-17T05:19:39.620Z,-3.87
2023-03-17T05:24:41.664Z,-3.85
2023-03-17T05:29:43.744Z,-3.83
2023-03-17T05:34:46.664Z,-3.81
2023-03-17T05:39:48.670Z,-3.76
2023-03-17T05:44:50.923Z,-3.65
2023-03-17T05:49:53.088Z,-3.57
2023-03-17T05:54:55.681Z,-3.44
2023-03-17T05:59:57.722Z,-3.34
2023-03-17T06:04:59.986Z,-3.22
2023-03-17T06:10:02.678Z,-3.08
2023-03-17T06:15:05.784Z,-2.92
2023-03-17T06:20:08.585Z,-2.73
2023-03-17T06:25:11.631Z,-2.50
2023-03-17T06:30:14.149Z,-2.28
2023-03-17T06:35:16.150Z,-2.06
2023-03-17T06:40:18.592Z,-1.84
2023-03-17T06:45:20.681Z,-1.61
2023-03-17T06:50:22.666Z,-1.35
2023-03-17T06:55:24.666Z,-1.12
2023-03-17T07:00:27.789Z,-0.88
2023-03-17T07:05:30.170Z,-0.71
2023-03-17T07:10:33.522Z,-0.51
2023-03-17T07:15:36.286Z,-0.36
2023-03-17T07:20:38.555Z,-0.22
2023-03-17T07:25:43.867Z,-0.06
2023-03-17T07:30:47.274Z,0.11
2023-03-17T07:35:50.325Z,0.29
2023-03-17T07:40:53.376Z,0.52
2023-03-17T07:45:55.492Z,0.73
2023-03-17T07:50:57.652Z,0.96
2023-03-17T07:56:00.330Z,1.22
2023-03-17T08:01:02.424Z,1.51
2023-03-17T08:06:06.404Z,1.77
2023-03-17T08:11:09.989Z,2.15
2023-03-17T08:16:12.360Z,2.39
2023-03-17T08:21:15.872Z,2.61
2023-03-17T08:26:18.899Z,2.81
2023-03-17T08:31:22.983Z,3.00
2023-03-17T08:36:26.362Z,3.28
2023-03-17T08:41:29.118Z,3.47
2023-03-17T08:46:32.920Z,3.73
2023-03-17T08:51:37.283Z,4.04
2023-03-17T08:56:40.733Z,4.33
2023-03-17T09:01:44.490Z,4.64
2023-03-17T09:07:02.301Z,4.96
2023-03-17T09:12:06.933Z,5.30
2023-03-17T09:17:09.957Z,5.56
2023-03-17T09:22:17.876Z,5.84
2023-03-17T09:27:19.937Z,6.09
2023-03-17T09:32:22.948Z,6.30
2023-03-17T09:37:25.194Z,6.52
2023-03-17T09:42:27.410Z,6.68
2023-03-17T09:47:39.696Z,6.90
2023-03-17T09:52:43.354Z,7.07
2023-03-17T09:57:46.406Z,7.27
2023-03-17T10:02:48.552Z,7.49
2023-03-17T10:07:57.044Z,7.70
2023-03-17T10:13:19.756Z,7.85
2023-03-17T10:18:27.418Z,8.05
2023-03-17T10:23:33.879Z,8.22
2023-03-17T10:28:39.046Z,8.46
2023-03-17T10:33:41.778Z,8.60
2023-03-17T10:38:54.581Z,8.72
2023-03-17T10:43:58.357Z,8.91
2023-03-17T10:49:08.499Z,9.16
2023-03-17T10:54:17.925Z,9.57
2023-03-17T10:59:28.535Z,10.16
2023-03-17T11:04:33.226Z,10.64
2023-03-17T11:09:37.045Z,10.83
2023-03-17T11:14:44.641Z,10.82
2023-03-17T11:20:05.162Z,10.75
2023-03-17T11:25:13.749Z,10.71
2023-03-17T11:30:55.491Z,10.68
2023-03-17T11:36:09.600Z,10.72
2023-03-17T11:41:14.812Z,10.70
2023-03-17T11:46:27.997Z,10.64
2023-03-17T11:51:30.766Z,10.61
2023-03-17T11:56:45.862Z,10.64
2023-03-17T12:02:08.369Z,10.68
2023-03-17T12:07:45.105Z,10.73
2023-03-17T12:12:53.852Z,10.71
2023-03-17T12:18:05.018Z,10.71
2023-03-17T12:23:32.525Z,10.74
2023-03-17T12:29:04.965Z,10.74
2023-03-17T12:34:20.789Z,10.74
2023-03-17T12:39:31.101Z,10.75
2023-03-17T12:44:58.528Z,10.74
2023-03-17T12:50:16.138Z,10.73
2023-03-17T12:55:19.193Z,10.77
2023-03-17T13:00:25.689Z,10.78
2023-03-17T13:05:33.273Z,10.81
2023-03-17T13:10:35.915Z,10.87
2023-03-17T13:15:38.930Z,10.89
2023-03-17T13:20:57.780Z,10.92
2023-03-17T13:26:00.864Z,10.97
2023-03-17T13:31:28.725Z,10.98
2023-03-17T13:36:58.113Z,11.02
2023-03-17T13:42:17.890Z,11.07
2023-03-17T13:47:23.242Z,11.13
2023-03-17T13:52:33.252Z,11.20
2023-03-17T13:57:38.494Z,11.23
2023-03-17T14:02:42.563Z,11.31
2023-03-17T14:07:51.530Z,11.48
2023-03-17T14:13:22.100Z,11.71
2023-03-17T14:18:33.102Z,11.88
2023-03-17T14:23:36.253Z,12.08
2023-03-17T14:28:38.437Z,12.25
2023-03-17T14:33:41.809Z,12.27
2023-03-17T14:38:50.239Z,12.15
2023-03-17T14:43:57.136Z,12.06
2023-03-17T14:49:16.824Z,11.92
2023-03-17T14:54:27.362Z,11.84
2023-03-17T14:59:42.097Z,11.73
2023-03-17T15:04:58.037Z,11.54
2023-03-17T15:10:04.301Z,11.44
2023-03-17T15:15:18.145Z,11.37
2023-03-17T15:20:20.615Z,11.16
2023-03-17T15:25:32.924Z,11.06
2023-03-17T15:30:46.532Z,10.91
2023-03-17T15:35:51.597Z,10.80
2023-03-17T15:40:54.063Z,10.60
2023-03-17T15:46:03.259Z,10.51
2023-03-17T15:51:06.117Z,10.40
2023-03-17T15:56:16.029Z,10.26
2023-03-17T16:01:19.215Z,10.14
2023-03-17T16:06:22.765Z,10.01
2023-03-17T16:11:28.928Z,9.89
2023-03-17T16:16:43.759Z,9.76
2023-03-17T16:21:46.413Z,9.66
2023-03-17T16:26:48.400Z,9.57
2023-03-17T16:31:52.602Z,9.49
2023-03-17T16:36:55.240Z,9.38
2023-03-17T16:41:57.806Z,9.29
2023-03-17T16:47:00.115Z,9.18
2023-03-17T16:52:02.647Z,9.10
2023-03-17T16:57:07.604Z,8.97
2023-03-17T17:02:16.725Z,8.84
2023-03-17T17:07:18.879Z,8.76
2023-03-17T17:12:21.511Z,8.69
2023-03-17T17:17:24.284Z,8.57
2023-03-17T17:22:28.751Z,8.46
2023-03-17T17:27:31.974Z,8.35
2023-03-17T17:32:35.152Z,8.26
2023-03-17T17:37:38.153Z,8.15
2023-03-17T17:42:40.938Z,8.05
2023-03-17T17:47:44.352Z,7.96
2023-03-17T17:52:48.020Z,7.83
2023-03-17T17:57:53.105Z,7.77
2023-03-17T18:02:56.115Z,7.67
2023-03-17T18:08:00.674Z,7.57
2023-03-17T18:13:03.887Z,7.47
2023-03-17T18:18:07.623Z,7.40
2023-03-17T18:23:11.010Z,7.29
2023-03-17T18:28:14.829Z,7.21
2023-03-17T18:33:20.809Z,7.13
2023-03-17T18:38:24.788Z,7.05
2023-03-17T18:43:29.232Z,6.96
2023-03-17T18:48:34.795Z,6.91
2023-03-17T18:53:39.526Z,6.82
2023-03-17T18:58:43.578Z,6.74
2023-03-17T19:03:47.032Z,6.66
2023-03-17T19:08:50.277Z,6.60
2023-03-17T19:13:53.744Z,6.54
2023-03-17T19:18:57.438Z,6.50
2023-03-17T19:24:02.772Z,6.42
2023-03-17T19:29:07.033Z,6.37
2023-03-17T19:34:12.170Z,6.31
2023-03-17T19:39:15.890Z,6.25
2023-03-17T19:44:21.149Z,6.18
2023-03-17T19:49:25.630Z,6.15
2023-03-17T19:54:29.531Z,6.10
2023-03-17T19:59:32.742Z,6.04
2023-03-17T20:04:37.580Z,5.98
2023-03-17T20:09:40.091Z,5.93
2023-03-17T20:14:43.217Z,5.86
2023-03-17T20:19:46.249Z,5.82
2023-03-17T20:24:50.585Z,5.77
2023-03-17T20:29:54.047Z,5.70
2023-03-17T20:34:57.302Z,5.65
2023-03-17T20:40:02.184Z,5.56
2023-03-17T20:45:05.727Z,5.55
2023-03-17T20:50:13.513Z,5.50
2023-03-17T20:55:17.132Z,5.42
2023-03-17T21:00:22.391Z,5.38
2023-03-17T21:05:27.630Z,5.32
2023-03-17T21:10:30.557Z,5.27
2023-03-17T21:15:33.238Z,5.22
2023-03-17T21:20:35.719Z,5.18
2023-03-17T21:25:39.480Z,5.14
2023-03-17T21:30:44.557Z,5.09
2023-03-17T21:35:48.154Z,5.05
2023-03-17T21:40:50.576Z,5.01
2023-03-17T21:45:53.049Z,4.98
2023-03-17T21:50:55.363Z,4.92
2023-03-17T21:55:57.381Z,4.89
2023-03-17T22:01:00.976Z,4.86
2023-03-17T22:06:05.697Z,4.83
2023-03-17T22:11:10.160Z,4.79
2023-03-17T22:16:13.300Z,4.75
2023-03-17T22:21:15.835Z,4.73
2023-03-17T22:26:21.199Z,4.69
2023-03-17T22:31:25.831Z,4.65
2023-03-17T22:36:29.069Z,4.64
2023-03-17T22:41:31.688Z,4.59
2023-03-17T22:46:33.660Z,4.58
2023-03-17T22:51:36.930Z,4.53
2023-03-17T22:56:39.462Z,4.49
2023-03-17T23:01:41.425Z,4.46
2023-03-17T23:06:43.693Z,4.42
2023-03-17T23:11:46.114Z,4.40
2023-03-17T23:16:48.948Z,4.36
2023-03-17T23:21:51.068Z,4.32
2023-03-17T23:26:53.065Z,4.28
2023-03-17T23:31:55.262Z,4.23
2023-03-17T23:36:57.256Z,4.21
2023-03-17T23:41:59.514Z,4.15
2023-03-17T23:47:01.881Z,4.11
2023-03-17T23:52:04.972Z,4.09
2023-03-17T23:57:08.075Z,4.04
